createdAt,value
2022-12-18T00:01:27.932Z,102688.97
2022-12-18T00:03:55.065Z,102676.31
2022-12-18T00:06:21.730Z,102668.59
2022-12-18T00:08:48.159Z,102685.66
2022-12-18T00:11:16.312Z,102681.91
2022-12-18T00:13:42.975Z,102692.31
2022-12-18T00:16:11.142Z,102682.41
2022-12-18T00:18:37.949Z,102683.31
2022-12-18T00:21:06.209Z,102686.38
2022-12-18T00:23:33.330Z,102688.88
2022-12-18T00:26:00.695Z,102696.41
2022-12-18T00:28:27.132Z,102705.75
2022-12-18T00:31:04.350Z,102719.56
2022-12-18T00:33:30.889Z,102717.88
2022-12-18T00:36:07.874Z,102718.38
2022-12-18T00:38:34.789Z,102706.47
2022-12-18T00:41:01.170Z,102709.31
2022-12-18T00:43:27.644Z,102700.81
2022-12-18T00:45:54.117Z,102698.28
2022-12-18T00:48:20.601Z,102696.97
2022-12-18T00:50:48.639Z,102701.63
2022-12-18T00:53:15.090Z,102707.03
2022-12-18T00:55:41.753Z,102705.84
2022-12-18T00:58:08.833Z,102704.06
2022-12-18T01:00:35.275Z,102716.81
2022-12-18T01:03:01.748Z,102718.94
2022-12-18T01:05:28.262Z,102724.59
2022-12-18T01:07:54.907Z,102717.78
2022-12-18T01:10:21.299Z,102716.44
2022-12-18T01:12:47.674Z,102711.50
2022-12-18T01:15:14.484Z,102714.56
2022-12-18T01:17:40.879Z,102717.38
2022-12-18T01:20:07.811Z,102717.38
2022-12-18T01:22:34.179Z,102708.84
2022-12-18T01:25:00.572Z,102709.00
2022-12-18T01:27:27.114Z,102705.44
2022-12-18T01:29:53.586Z,102695.88
2022-12-18T01:32:20.400Z,102708.19
2022-12-18T01:34:46.935Z,102703.09
2022-12-18T01:37:13.344Z,102712.41
2022-12-18T01:39:39.792Z,102718.25
2022-12-18T01:42:12.035Z,102719.78
2022-12-18T01:45:07.026Z,102718.88
2022-12-18T01:47:43.914Z,102715.00
2022-12-18T01:50:21.135Z,102728.94
2022-12-18T01:52:59.254Z,102728.94
2022-12-18T01:55:27.408Z,102729.03
2022-12-18T01:57:55.218Z,102733.00
2022-12-18T02:00:22.077Z,102726.97
2022-12-18T02:02:48.589Z,102733.88
2022-12-18T02:05:17.709Z,102731.09
2022-12-18T02:08:06.250Z,102730.28
2022-12-18T02:10:41.424Z,102732.00
2022-12-18T02:13:15.326Z,102730.84
2022-12-18T02:15:43.401Z,102734.50
2022-12-18T02:18:20.733Z,102740.50
2022-12-18T02:21:19.375Z,102736.09
2022-12-18T02:23:53.619Z,102749.13
2022-12-18T02:26:31.103Z,102744.56
2022-12-18T02:29:09.292Z,102745.16
2022-12-18T02:31:37.921Z,102754.22
2022-12-18T02:34:05.121Z,102752.06
2022-12-18T02:36:31.497Z,102754.34
2022-12-18T02:38:58.058Z,102748.69
2022-12-18T02:41:24.449Z,102746.25
2022-12-18T02:43:56.469Z,102741.03
2022-12-18T02:46:28.942Z,102737.84
2022-12-18T02:48:58.650Z,102741.78
2022-12-18T02:51:30.009Z,102747.47
2022-12-18T02:54:20.929Z,102752.31
2022-12-18T02:56:52.737Z,102750.88
2022-12-18T02:59:22.368Z,102753.28
2022-12-18T03:01:53.379Z,102750.09
2022-12-18T03:04:28.903Z,102755.03
2022-12-18T03:06:56.966Z,102749.31
2022-12-18T03:09:45.925Z,102752.53
2022-12-18T03:12:33.335Z,102749.53
2022-12-18T03:15:20.609Z,102750.25
2022-12-18T03:17:51.801Z,102752.16
2022-12-18T03:20:19.881Z,102753.25
2022-12-18T03:22:47.655Z,102757.44
2022-12-18T03:25:14.660Z,102764.94
2022-12-18T03:27:43.509Z,102755.88
2022-12-18T03:30:10.858Z,102757.56
2022-12-18T03:32:45.575Z,102756.66
2022-12-18T03:35:12.490Z,102761.28
2022-12-18T03:37:38.882Z,102761.81
2022-12-18T03:40:06.002Z,102767.19
2022-12-18T03:42:42.534Z,102761.88
2022-12-18T03:45:27.576Z,102755.72
2022-12-18T03:48:00.783Z,102767.69
2022-12-18T03:50:30.531Z,102762.41
2022-12-18T03:53:12.185Z,102762.19
2022-12-18T03:55:38.557Z,102758.59
2022-12-18T03:58:05.014Z,102761.97
2022-12-18T04:00:31.421Z,102759.38
2022-12-18T04:02:58.011Z,102759.47
2022-12-18T04:05:26.542Z,102752.91
2022-12-18T04:07:52.978Z,102745.69
2022-12-18T04:10:19.442Z,102755.91
2022-12-18T04:12:45.877Z,102757.50
2022-12-18T04:15:13.054Z,102754.00
2022-12-18T04:17:39.720Z,102754.09
2022-12-18T04:20:06.569Z,102753.50
2022-12-18T04:22:32.978Z,102756.28
2022-12-18T04:24:59.348Z,102758.41
2022-12-18T04:27:25.729Z,102768.22
2022-12-18T04:29:52.118Z,102765.03
2022-12-18T04:32:18.491Z,102760.13
2022-12-18T04:34:44.898Z,102758.53
2022-12-18T04:37:11.269Z,102742.03
2022-12-18T04:39:37.690Z,102747.00
2022-12-18T04:42:04.095Z,102748.97
2022-12-18T04:44:30.483Z,102745.59
2022-12-18T04:46:56.879Z,102743.72
2022-12-18T04:49:23.285Z,102740.84
2022-12-18T04:51:49.694Z,102751.03
2022-12-18T04:54:16.094Z,102758.81
2022-12-18T04:56:42.470Z,102748.63
2022-12-18T04:59:08.879Z,102754.00
2022-12-18T05:01:35.436Z,102756.88
2022-12-18T05:04:02.793Z,102764.56
2022-12-18T05:06:29.295Z,102767.09
2022-12-18T05:08:55.702Z,102765.03
2022-12-18T05:11:22.075Z,102766.94
2022-12-18T05:13:48.459Z,102788.59
2022-12-18T05:16:14.944Z,102792.22
2022-12-18T05:18:41.558Z,102795.44
2022-12-18T05:21:07.943Z,102792.03
2022-12-18T05:23:34.312Z,102791.72
2022-12-18T05:26:02.101Z,102791.81
2022-12-18T05:28:29.513Z,102786.50
2022-12-18T05:30:57.828Z,102792.94
2022-12-18T05:33:25.235Z,102786.63
2022-12-18T05:35:55.619Z,102798.63
2022-12-18T05:38:22.320Z,102811.44
2022-12-18T05:40:49.467Z,102802.00
2022-12-18T05:43:20.964Z,102804.53
2022-12-18T05:45:47.912Z,102806.13
2022-12-18T05:48:14.310Z,102808.63
2022-12-18T05:50:42.013Z,102809.31
2022-12-18T05:53:08.407Z,102815.19
2022-12-18T05:55:38.874Z,102810.22
2022-12-18T05:58:05.450Z,102819.22
2022-12-18T06:00:32.526Z,102809.91
2022-12-18T06:02:59.553Z,102803.75
2022-12-18T06:05:26.300Z,102807.31
2022-12-18T06:07:52.718Z,102812.41
2022-12-18T06:10:19.983Z,102815.84
2022-12-18T06:12:46.362Z,102817.59
2022-12-18T06:15:13.981Z,102821.94
2022-12-18T06:17:40.603Z,102814.94
2022-12-18T06:20:07.357Z,102814.22
2022-12-18T06:22:33.730Z,102812.63
2022-12-18T06:25:00.130Z,102818.63
2022-12-18T06:27:26.574Z,102819.22
2022-12-18T06:29:52.982Z,102824.00
2022-12-18T06:32:19.350Z,102830.59
2022-12-18T06:34:45.953Z,102825.31
2022-12-18T06:37:12.349Z,102827.22
2022-12-18T06:39:38.796Z,102822.19
2022-12-18T06:42:05.384Z,102821.72
2022-12-18T06:44:31.752Z,102823.31
2022-12-18T06:46:58.148Z,102825.81
2022-12-18T06:49:30.152Z,102829.81
2022-12-18T06:51:56.940Z,102829.59
2022-12-18T06:54:23.314Z,102835.81
2022-12-18T06:56:50.396Z,102832.31
2022-12-18T06:59:17.469Z,102830.59
2022-12-18T07:01:44.005Z,102822.69
2022-12-18T07:04:10.517Z,102831.41
2022-12-18T07:06:36.917Z,102836.81
2022-12-18T07:09:03.310Z,102837.78
2022-12-18T07:11:29.718Z,102839.09
2022-12-18T07:13:56.104Z,102842.38
2022-12-18T07:16:25.284Z,102848.47
2022-12-18T07:18:53.021Z,102839.88
2022-12-18T07:21:19.959Z,102843.50
2022-12-18T07:23:46.349Z,102844.59
2022-12-18T07:26:13.466Z,102854.00
2022-12-18T07:28:40.337Z,102851.69
2022-12-18T07:31:07.789Z,102855.63
2022-12-18T07:33:34.400Z,102854.81
2022-12-18T07:36:04.765Z,102856.53
2022-12-18T07:38:31.863Z,102854.00
2022-12-18T07:41:06.779Z,102863.59
2022-12-18T07:43:33.857Z,102860.09
2022-12-18T07:46:00.253Z,102861.00
2022-12-18T07:48:26.722Z,102856.91
2022-12-18T07:50:53.310Z,102865.72
2022-12-18T07:53:19.781Z,102870.94
2022-12-18T07:56:17.940Z,102867.31
2022-12-18T07:58:33.079Z,102865.00
2022-12-18T08:01:08.002Z,102871.28
2022-12-18T08:03:34.449Z,102865.50
2022-12-18T08:06:01.830Z,102858.09
2022-12-18T08:08:28.881Z,102856.19
2022-12-18T08:10:55.256Z,102856.81
2022-12-18T08:13:21.704Z,102868.31
2022-12-18T08:16:02.342Z,102860.81
2022-12-18T08:18:28.851Z,102847.38
2022-12-18T08:20:55.728Z,102852.19
2022-12-18T08:23:22.333Z,102852.47
2022-12-18T08:25:48.778Z,102849.38
2022-12-18T08:28:15.203Z,102850.75
2022-12-18T08:30:41.613Z,102850.97
2022-12-18T08:33:08.261Z,102847.75
2022-12-18T08:35:42.492Z,102851.56
2022-12-18T08:38:11.952Z,102852.81
2022-12-18T08:40:38.336Z,102840.91
2022-12-18T08:43:04.768Z,102851.69
2022-12-18T08:45:34.658Z,102854.50
2022-12-18T08:48:01.121Z,102845.88
2022-12-18T08:50:27.514Z,102866.91
2022-12-18T08:52:53.897Z,102856.66
2022-12-18T08:55:20.315Z,102855.97
2022-12-18T08:57:49.706Z,102855.06
2022-12-18T09:00:16.807Z,102855.25
2022-12-18T09:02:43.752Z,102861.72
2022-12-18T09:05:10.215Z,102862.84
2022-12-18T09:07:36.899Z,102861.22
2022-12-18T09:10:03.509Z,102862.19
2022-12-18T09:12:29.887Z,102869.59
2022-12-18T09:14:56.299Z,102869.97
2022-12-18T09:17:22.992Z,102857.31
2022-12-18T09:19:49.503Z,102853.28
2022-12-18T09:22:15.894Z,102854.56
2022-12-18T09:24:42.329Z,102858.22
2022-12-18T09:27:08.701Z,102861.03
2022-12-18T09:29:35.121Z,102862.81
2022-12-18T09:32:01.489Z,102865.63
2022-12-18T09:34:27.886Z,102865.78
2022-12-18T09:36:54.308Z,102858.06
2022-12-18T09:39:22.792Z,102858.06
2022-12-18T09:41:54.379Z,102857.34
2022-12-18T09:44:24.702Z,102867.22
2022-12-18T09:47:27.274Z,102864.28
2022-12-18T09:49:59.316Z,102858.53
2022-12-18T09:52:34.571Z,102859.16
2022-12-18T09:55:37.632Z,102846.53
2022-12-18T09:58:12.374Z,102853.22
2022-12-18T10:00:38.921Z,102863.72
2022-12-18T10:03:12.410Z,102867.59
2022-12-18T10:05:57.096Z,102854.88
2022-12-18T10:08:33.402Z,102858.00
2022-12-18T10:11:16.234Z,102866.44
2022-12-18T10:13:49.798Z,102855.47
2022-12-18T10:16:20.964Z,102862.72
2022-12-18T10:19:13.404Z,102868.22
2022-12-18T10:21:42.918Z,102856.25
2022-12-18T10:24:16.148Z,102858.28
2022-12-18T10:26:42.567Z,102862.06
2022-12-18T10:29:16.011Z,102865.63
2022-12-18T10:31:42.518Z,102867.28
2022-12-18T10:34:12.595Z,102876.91
2022-12-18T10:36:38.985Z,102880.56
2022-12-18T10:39:22.916Z,102879.84
2022-12-18T10:41:50.607Z,102866.06
2022-12-18T10:44:18.182Z,102864.44
2022-12-18T10:46:49.417Z,102862.88
2022-12-18T10:49:27.343Z,102863.06
2022-12-18T10:52:25.460Z,102852.78
2022-12-18T10:54:53.583Z,102849.34
2022-12-18T10:57:39.325Z,102837.50
2022-12-18T11:00:29.021Z,102839.69
2022-12-18T11:02:55.687Z,102847.63
2022-12-18T11:05:33.597Z,102846.91
2022-12-18T11:08:00.551Z,102845.31
2022-12-18T11:10:30.051Z,102841.97
2022-12-18T11:12:56.794Z,102838.72
2022-12-18T11:15:28.641Z,102828.44
2022-12-18T11:17:55.084Z,102845.16
2022-12-18T11:20:31.750Z,102844.59
2022-12-18T11:23:13.357Z,102841.28
2022-12-18T11:25:39.860Z,102841.47
2022-12-18T11:28:40.028Z,102827.88
2022-12-18T11:31:33.051Z,102829.53
2022-12-18T11:34:29.107Z,102832.97
2022-12-18T11:36:57.346Z,102832.06
2022-12-18T11:39:45.838Z,102823.31
2022-12-18T11:42:17.862Z,102824.44
2022-12-18T11:44:58.395Z,102822.28
2022-12-18T11:47:40.334Z,102820.16
2022-12-18T11:50:11.575Z,102820.38
2022-12-18T11:52:39.669Z,102815.47
2022-12-18T11:55:12.639Z,102808.66
2022-12-18T11:58:04.150Z,102806.94
2022-12-18T12:00:30.557Z,102786.25
2022-12-18T12:03:09.077Z,102791.63
2022-12-18T12:05:44.337Z,102790.84
2022-12-18T12:08:32.503Z,102775.97
2022-12-18T12:11:11.687Z,102779.44
2022-12-18T12:14:13.566Z,102784.19
2022-12-18T12:17:08.980Z,102794.63
2022-12-18T12:19:54.037Z,102778.84
2022-12-18T12:22:33.963Z,102771.72
2022-12-18T12:25:22.081Z,102763.22
2022-12-18T12:28:13.670Z,102761.53
2022-12-18T12:30:53.238Z,102745.84
2022-12-18T12:33:19.516Z,102746.91
2022-12-18T12:36:13.683Z,102737.50
2022-12-18T12:39:02.503Z,102716.63
2022-12-18T12:41:31.516Z,102719.59
2022-12-18T12:43:59.399Z,102709.63
2022-12-18T12:46:26.163Z,102714.41
2022-12-18T12:48:54.239Z,102705.88
2022-12-18T12:51:22.712Z,102713.72
2022-12-18T12:53:49.832Z,102707.66
2022-12-18T12:56:20.391Z,102700.72
2022-12-18T12:58:59.334Z,102706.13
2022-12-18T13:01:27.764Z,102709.59
2022-12-18T13:04:13.792Z,102720.75
2022-12-18T13:06:47.608Z,102713.94
2022-12-18T13:09:14.562Z,102701.81
2022-12-18T13:11:42.696Z,102712.13
2022-12-18T13:14:20.806Z,102710.63
2022-12-18T13:16:47.187Z,102710.63
2022-12-18T13:19:26.419Z,102710.69
2022-12-18T13:21:54.386Z,102702.03
2022-12-18T13:24:26.395Z,102708.75
2022-12-18T13:26:52.838Z,102712.34
2022-12-18T13:29:44.856Z,102704.88
2022-12-18T13:32:24.914Z,102700.97
2022-12-18T13:35:21.877Z,102697.41
2022-12-18T13:37:53.054Z,102692.84
2022-12-18T13:40:37.942Z,102697.84
2022-12-18T13:43:20.556Z,102690.59
2022-12-18T13:45:59.631Z,102696.38
2022-12-18T13:48:26.759Z,102692.63
2022-12-18T13:51:01.353Z,102707.25
2022-12-18T13:53:33.958Z,102707.13
2022-12-18T13:56:00.374Z,102710.41
2022-12-18T13:58:26.909Z,102697.09
2022-12-18T14:00:53.706Z,102689.94
2022-12-18T14:03:26.756Z,102688.13
2022-12-18T14:05:54.910Z,102680.94
2022-12-18T14:08:21.351Z,102679.03
2022-12-18T14:10:49.975Z,102680.50
2022-12-18T14:13:24.024Z,102690.78
2022-12-18T14:15:50.715Z,102684.28
2022-12-18T14:18:34.835Z,102682.28
2022-12-18T14:21:02.087Z,102681.88
2022-12-18T14:23:40.003Z,102667.59
2022-12-18T14:26:29.609Z,102657.41
2022-12-18T14:29:00.817Z,102659.78
2022-12-18T14:31:30.521Z,102673.28
2022-12-18T14:33:56.988Z,102677.44
2022-12-18T14:36:25.037Z,102670.84
2022-12-18T14:38:57.983Z,102678.44
2022-12-18T14:41:24.656Z,102673.78
2022-12-18T14:43:52.082Z,102676.56
2022-12-18T14:46:33.976Z,102668.81
2022-12-18T14:49:02.071Z,102678.22
2022-12-18T14:51:29.774Z,102671.84
2022-12-18T14:54:03.975Z,102668.19
2022-12-18T14:56:37.314Z,102661.81
2022-12-18T14:59:13.439Z,102640.00
2022-12-18T15:01:40.519Z,102636.28
2022-12-18T15:04:24.374Z,102632.53
2022-12-18T15:06:51.618Z,102633.16
2022-12-18T15:09:27.209Z,102636.75
2022-12-18T15:12:00.902Z,102630.41
2022-12-18T15:14:34.474Z,102631.97
2022-12-18T15:17:01.234Z,102623.22
2022-12-18T15:19:35.234Z,102621.69
2022-12-18T15:22:06.312Z,102608.28
2022-12-18T15:24:33.268Z,102607.56
2022-12-18T15:27:00.214Z,102596.38
2022-12-18T15:29:26.618Z,102609.34
2022-12-18T15:32:03.794Z,102609.34
2022-12-18T15:34:30.334Z,102605.13
2022-12-18T15:36:56.805Z,102604.31
2022-12-18T15:39:23.226Z,102607.22
2022-12-18T15:41:49.661Z,102594.09
2022-12-18T15:44:25.170Z,102579.56
2022-12-18T15:46:51.592Z,102587.31
2022-12-18T15:49:17.991Z,102565.28
2022-12-18T15:51:44.407Z,102566.59
2022-12-18T15:54:14.534Z,102566.34
2022-12-18T15:56:41.421Z,102566.19
2022-12-18T15:59:17.831Z,102555.81
2022-12-18T16:01:48.781Z,102555.81
2022-12-18T16:04:16.570Z,102558.59
2022-12-18T16:07:12.660Z,102549.44
2022-12-18T16:09:29.586Z,102545.78
2022-12-18T16:11:55.983Z,102560.59
2022-12-18T16:14:40.662Z,102549.28
2022-12-18T16:17:10.174Z,102537.69
2022-12-18T16:19:36.592Z,102544.47
2022-12-18T16:22:02.982Z,102546.34
2022-12-18T16:24:30.978Z,102534.13
2022-12-18T16:27:00.521Z,102537.69
2022-12-18T16:29:27.746Z,102522.78
2022-12-18T16:32:00.173Z,102526.53
2022-12-18T16:34:28.947Z,102525.72
2022-12-18T16:37:04.947Z,102518.59
2022-12-18T16:39:32.878Z,102531.59
2022-12-18T16:42:02.655Z,102522.13
2022-12-18T16:44:33.225Z,102528.06
2022-12-18T16:46:59.620Z,102526.13
2022-12-18T16:49:26.096Z,102527.91
2022-12-18T16:51:52.514Z,102531.28
2022-12-18T16:54:19.629Z,102528.72
2022-12-18T16:56:48.498Z,102533.94
2022-12-18T16:59:14.917Z,102519.13
2022-12-18T17:01:42.245Z,102522.56
2022-12-18T17:04:09.258Z,102535.69
2022-12-18T17:06:39.991Z,102519.19
2022-12-18T17:09:07.619Z,102506.00
2022-12-18T17:11:34.446Z,102499.16
2022-12-18T17:14:05.535Z,102489.56
2022-12-18T17:16:32.051Z,102494.78
2022-12-18T17:19:01.892Z,102491.53
2022-12-18T17:21:31.551Z,102494.78
2022-12-18T17:24:00.329Z,102485.75
2022-12-18T17:26:26.746Z,102498.81
2022-12-18T17:28:53.146Z,102490.31
2022-12-18T17:31:21.585Z,102498.25
2022-12-18T17:33:48.576Z,102493.97
2022-12-18T17:36:15.125Z,102493.97
2022-12-18T17:38:41.519Z,102500.97
2022-12-18T17:41:08.679Z,102489.56
2022-12-18T17:43:35.180Z,102485.19
2022-12-18T17:46:05.967Z,102473.78
2022-12-18T17:48:34.699Z,102464.22
2022-12-18T17:51:05.246Z,102463.31
2022-12-18T17:53:31.658Z,102461.38
2022-12-18T17:55:58.691Z,102458.91
2022-12-18T17:58:25.115Z,102447.50
2022-12-18T18:00:51.555Z,102443.91
2022-12-18T18:03:18.147Z,102431.09
2022-12-18T18:05:44.756Z,102430.13
2022-12-18T18:08:11.131Z,102416.41
2022-12-18T18:10:38.002Z,102416.53
2022-12-18T18:13:05.386Z,102407.81
2022-12-18T18:15:31.769Z,102412.28
2022-12-18T18:17:58.183Z,102417.75
2022-12-18T18:20:24.592Z,102399.41
2022-12-18T18:22:51.107Z,102397.69
2022-12-18T18:25:17.653Z,102407.31
2022-12-18T18:27:44.496Z,102409.16
2022-12-18T18:30:13.907Z,102400.38
2022-12-18T18:32:40.330Z,102393.47
2022-12-18T18:35:15.707Z,102395.44
2022-12-18T18:37:51.195Z,102379.91
2022-12-18T18:40:18.219Z,102388.56
2022-12-18T18:42:44.854Z,102384.09
2022-12-18T18:45:11.288Z,102369.41
2022-12-18T18:47:37.699Z,102369.47
2022-12-18T18:50:04.504Z,102365.97
2022-12-18T18:52:30.905Z,102376.25
2022-12-18T18:55:12.929Z,102358.94
2022-12-18T18:57:40.197Z,102345.16
2022-12-18T19:00:07.416Z,102335.72
2022-12-18T19:02:34.135Z,102323.63
2022-12-18T19:05:00.637Z,102317.41
2022-12-18T19:07:30.244Z,102321.84
2022-12-18T19:09:57.126Z,102321.09
2022-12-18T19:12:25.165Z,102309.16
2022-12-18T19:14:53.898Z,102294.97
2022-12-18T19:17:23.699Z,102302.75
2022-12-18T19:19:54.432Z,102297.38
2022-12-18T19:22:20.819Z,102307.97
2022-12-18T19:24:47.221Z,102314.81
2022-12-18T19:27:13.601Z,102307.81
2022-12-18T19:29:40.070Z,102300.94
2022-12-18T19:32:06.546Z,102300.94
2022-12-18T19:34:33.074Z,102295.06
2022-12-18T19:37:00.237Z,102299.16
2022-12-18T19:39:26.910Z,102271.53
2022-12-18T19:41:53.786Z,102266.25
2022-12-18T19:44:20.705Z,102271.41
2022-12-18T19:46:49.410Z,102255.88
2022-12-18T19:49:18.130Z,102262.88
2022-12-18T19:51:45.030Z,102271.97
2022-12-18T19:54:16.987Z,102261.38
2022-12-18T19:56:46.013Z,102264.69
2022-12-18T19:59:12.810Z,102249.91
2022-12-18T20:01:41.857Z,102252.59
2022-12-18T20:04:17.166Z,102254.50
2022-12-18T20:07:11.242Z,102248.66
2022-12-18T20:09:37.804Z,102253.75
2022-12-18T20:12:06.220Z,102239.16
2022-12-18T20:14:32.655Z,102220.25
2022-12-18T20:16:59.130Z,102221.16
2022-12-18T20:19:26.961Z,102223.69
2022-12-18T20:21:54.662Z,102224.34
2022-12-18T20:24:21.078Z,102212.09
2022-12-18T20:26:47.987Z,102210.47
2022-12-18T20:29:15.525Z,102212.16
2022-12-18T20:31:41.968Z,102206.94
2022-12-18T20:34:08.489Z,102199.09
2022-12-18T20:36:36.254Z,102207.75
2022-12-18T20:39:05.417Z,102202.66
2022-12-18T20:41:38.325Z,102200.09
2022-12-18T20:44:22.236Z,102199.22
2022-12-18T20:46:51.925Z,102202.03
2022-12-18T20:49:18.339Z,102198.59
2022-12-18T20:51:44.762Z,102198.72
2022-12-18T20:54:12.028Z,102176.91
2022-12-18T20:56:38.558Z,102163.16
2022-12-18T20:59:04.962Z,102147.56
2022-12-18T21:01:31.535Z,102145.00
2022-12-18T21:03:57.987Z,102131.13
2022-12-18T21:06:28.058Z,102134.69
2022-12-18T21:08:57.071Z,102152.09
2022-12-18T21:11:30.769Z,102135.31
2022-12-18T21:13:57.387Z,102138.69
2022-12-18T21:16:24.994Z,102148.25
2022-12-18T21:18:52.614Z,102165.78
2022-12-18T21:21:26.612Z,102196.25
2022-12-18T21:23:53.808Z,102237.50
2022-12-18T21:26:26.991Z,102226.16
2022-12-18T21:28:59.204Z,102268.81
2022-12-18T21:31:27.366Z,102258.41
2022-12-18T21:33:58.328Z,102236.66
2022-12-18T21:36:28.687Z,102244.47
2022-12-18T21:38:55.296Z,102240.88
2022-12-18T21:41:23.261Z,102227.91
2022-12-18T21:43:50.301Z,102209.59
2022-12-18T21:46:19.088Z,102210.47
2022-12-18T21:48:45.520Z,102207.00
2022-12-18T21:51:11.910Z,102200.13
2022-12-18T21:53:39.379Z,102193.25
2022-12-18T21:56:05.913Z,102191.47
2022-12-18T21:58:32.310Z,102190.72
2022-12-18T22:00:58.723Z,102189.25
2022-12-18T22:03:25.272Z,102197.88
2022-12-18T22:06:00.775Z,102195.19
2022-12-18T22:08:35.981Z,102185.56
2022-12-18T22:11:06.817Z,102189.19
2022-12-18T22:13:33.238Z,102177.00
2022-12-18T22:15:59.691Z,102160.50
2022-12-18T22:18:26.091Z,102157.19
2022-12-18T22:21:01.424Z,102158.97
2022-12-18T22:23:28.146Z,102162.41
2022-12-18T22:25:54.675Z,102158.00
2022-12-18T22:28:21.062Z,102153.69
2022-12-18T22:30:47.495Z,102154.56
2022-12-18T22:33:15.244Z,102144.13
2022-12-18T22:35:41.699Z,102138.13
2022-12-18T22:38:08.467Z,102144.25
2022-12-18T22:40:34.860Z,102139.09
2022-12-18T22:43:01.511Z,102138.31
2022-12-18T22:45:27.965Z,102128.66
2022-12-18T22:47:54.434Z,102129.50
2022-12-18T22:50:20.915Z,102101.69
2022-12-18T22:52:47.317Z,102088.75
2022-12-18T22:55:13.746Z,102093.16
2022-12-18T22:57:40.183Z,102094.13
2022-12-18T23:00:13.938Z,102093.28
2022-12-18T23:02:40.398Z,102083.66
2022-12-18T23:05:07.154Z,102077.59
2022-12-18T23:07:33.557Z,102066.25
2022-12-18T23:10:00.618Z,102056.69
2022-12-18T23:12:27.298Z,102053.25
2022-12-18T23:14:54.067Z,102052.34
2022-12-18T23:17:20.469Z,102046.31
2022-12-18T23:19:49.184Z,102042.19
2022-12-18T23:22:16.717Z,102038.66
2022-12-18T23:24:43.090Z,102027.31
2022-12-18T23:27:11.700Z,102030.81
2022-12-18T23:29:38.821Z,102037.00
2022-12-18T23:32:05.221Z,102041.34
2022-12-18T23:34:31.613Z,102039.69
2022-12-18T23:36:58.043Z,102036.25
2022-12-18T23:39:29.316Z,102034.34
2022-12-18T23:41:57.515Z,102036.94
2022-12-18T23:44:23.898Z,102037.78
2022-12-18T23:46:50.412Z,102030.75
2022-12-18T23:49:16.842Z,102033.38
2022-12-18T23:51:43.458Z,102029.03
2022-12-18T23:54:09.979Z,102028.22
2022-12-18T23:56:36.375Z,102022.16
2022-12-18T23:59:02.792Z,102031.03
